createdAt,value
2023-03-06T00:01:02.684Z,5.68
2023-03-06T00:03:29.640Z,6.70
2023-03-06T00:05:58.793Z,4.68
2023-03-06T00:08:28.813Z,5.75
2023-03-06T00:10:56.573Z,7.00
2023-03-06T00:13:24.054Z,6.40
2023-03-06T00:15:51.180Z,5.70
2023-03-06T00:18:18.122Z,6.85
2023-03-06T00:20:45.441Z,5.20
2023-03-06T00:23:12.730Z,5.50
2023-03-06T00:25:47.297Z,5.05
2023-03-06T00:28:15.817Z,4.90
2023-03-06T00:30:44.034Z,4.63
2023-03-06T00:33:11.222Z,6.38
2023-03-06T00:35:42.829Z,7.57
2023-03-06T00:38:13.000Z,7.55
2023-03-06T00:40:40.702Z,6.68
2023-03-06T00:43:12.546Z,6.35
2023-03-06T00:45:39.645Z,5.53
2023-03-06T00:48:08.816Z,6.45
2023-03-06T00:50:36.194Z,5.85
2023-03-06T00:53:03.195Z,6.18
2023-03-06T00:55:31.175Z,6.22
2023-03-06T00:57:58.135Z,7.15
2023-03-06T01:00:26.998Z,7.00
2023-03-06T01:02:54.017Z,8.40
2023-03-06T01:05:22.815Z,7.65
2023-03-06T01:07:49.833Z,6.20
2023-03-06T01:10:16.970Z,5.00
2023-03-06T01:12:45.062Z,4.97
2023-03-06T01:15:14.235Z,6.45
2023-03-06T01:17:41.317Z,6.50
2023-03-06T01:20:15.663Z,7.43
2023-03-06T01:22:42.765Z,6.63
2023-03-06T01:25:10.372Z,7.32
2023-03-06T01:27:37.450Z,6.55
2023-03-06T01:30:05.268Z,7.53
2023-03-06T01:32:33.014Z,9.20
2023-03-06T01:35:00.039Z,7.97
2023-03-06T01:37:27.063Z,10.02
2023-03-06T01:39:53.965Z,7.13
2023-03-06T01:42:21.197Z,6.40
2023-03-06T01:45:27.035Z,7.28
2023-03-06T01:47:54.027Z,8.02
2023-03-06T01:50:21.171Z,7.00
2023-03-06T01:52:54.390Z,7.20
2023-03-06T01:55:30.566Z,7.55
2023-03-06T02:00:31.328Z,6.63
2023-03-06T02:03:14.949Z,8.25
2023-03-06T02:05:43.922Z,8.27
2023-03-06T02:08:16.566Z,9.15
2023-03-06T02:11:37.424Z,7.25
2023-03-06T02:14:04.869Z,8.90
2023-03-06T02:16:34.176Z,10.43
2023-03-06T02:19:04.480Z,7.80
2023-03-06T02:21:37.109Z,8.25
2023-03-06T02:24:33.848Z,10.45
2023-03-06T02:27:04.500Z,11.02
2023-03-06T02:29:32.378Z,7.03
2023-03-06T02:32:02.711Z,9.10
2023-03-06T02:34:29.634Z,7.32
2023-03-06T02:37:04.485Z,8.25
2023-03-06T02:39:35.887Z,7.88
2023-03-06T02:42:02.811Z,8.40
2023-03-06T02:44:33.656Z,8.80
2023-03-06T02:47:00.643Z,6.82
2023-03-06T02:49:27.556Z,7.18
2023-03-06T02:51:54.509Z,7.15
2023-03-06T02:54:21.722Z,10.23
2023-03-06T02:56:49.374Z,9.85
2023-03-06T02:59:16.413Z,9.25
2023-03-06T03:01:43.592Z,9.48
2023-03-06T03:04:11.064Z,8.27
2023-03-06T03:06:39.195Z,7.47
2023-03-06T03:09:07.299Z,11.70
2023-03-06T03:11:34.891Z,9.30
2023-03-06T03:14:02.126Z,9.07
2023-03-06T03:16:29.131Z,7.65
2023-03-06T03:18:58.665Z,9.70
2023-03-06T03:21:26.400Z,8.57
2023-03-06T03:23:54.938Z,9.45
2023-03-06T03:26:22.790Z,11.23
2023-03-06T03:29:15.829Z,8.52
2023-03-06T03:31:42.888Z,13.32
2023-03-06T03:34:09.870Z,12.27
2023-03-06T03:36:39.970Z,10.95
2023-03-06T03:39:08.944Z,10.70
2023-03-06T03:41:36.181Z,9.20
2023-03-06T03:44:06.641Z,10.15
2023-03-06T03:46:33.834Z,9.80
2023-03-06T03:49:02.277Z,10.77
2023-03-06T03:51:29.502Z,11.25
2023-03-06T03:53:58.113Z,10.82
2023-03-06T03:56:28.295Z,11.13
2023-03-06T03:59:03.454Z,9.75
2023-03-06T04:01:39.435Z,10.55
2023-03-06T04:04:06.817Z,9.57
2023-03-06T04:06:34.268Z,12.50
2023-03-06T04:09:01.566Z,10.50
2023-03-06T04:11:29.483Z,11.68
2023-03-06T04:13:56.767Z,9.10
2023-03-06T04:16:24.589Z,12.52
2023-03-06T04:18:52.010Z,11.20
2023-03-06T04:21:20.250Z,11.27
2023-03-06T04:23:47.571Z,13.13
2023-03-06T04:26:14.756Z,10.82
2023-03-06T04:32:07.168Z,10.55
2023-03-06T04:34:34.377Z,10.63
2023-03-06T04:37:02.619Z,10.75
2023-03-06T04:40:01.092Z,9.55
2023-03-06T04:43:05.955Z,12.52
2023-03-06T04:45:42.780Z,12.48
2023-03-06T05:04:08.250Z,11.52
2023-03-06T05:10:46.887Z,10.10
2023-03-06T05:27:23.565Z,12.30
2023-03-06T05:30:28.412Z,10.25
2023-03-06T05:36:38.571Z,16.25
2023-03-06T05:39:13.856Z,15.43
2023-03-06T05:42:07.094Z,12.65
2023-03-06T06:05:46.392Z,13.38
2023-03-06T06:08:25.371Z,15.75
2023-03-06T06:15:05.658Z,14.32
2023-03-06T06:28:08.356Z,16.80
2023-03-06T06:30:39.262Z,16.48
2023-03-06T06:33:12.168Z,16.55
2023-03-06T06:35:54.513Z,17.75
2023-03-06T06:38:25.120Z,15.75
2023-03-06T06:48:56.702Z,16.25
2023-03-06T06:52:22.724Z,14.10
2023-03-06T07:29:22.354Z,15.02
2023-03-06T08:50:54.665Z,13.45
2023-03-06T08:54:57.292Z,12.27
2023-03-06T10:37:41.483Z,15.90
2023-03-06T10:41:25.657Z,20.55
2023-03-06T10:44:12.736Z,16.92
2023-03-06T10:46:53.285Z,18.58
2023-03-06T10:49:42.088Z,17.00
2023-03-06T10:52:19.772Z,20.15
2023-03-06T10:54:51.067Z,21.98
2023-03-06T10:58:36.772Z,18.35
2023-03-06T11:01:27.380Z,21.42
2023-03-06T11:04:31.625Z,20.73
2023-03-06T11:07:57.305Z,18.13
2023-03-06T11:32:52.650Z,27.10
2023-03-06T11:35:56.833Z,25.98
2023-03-06T11:39:32.522Z,25.42
2023-03-06T11:42:32.039Z,24.67
2023-03-06T11:45:37.099Z,24.95
2023-03-06T11:48:43.940Z,23.70
2023-03-06T11:51:34.981Z,23.95
2023-03-06T13:42:49.847Z,18.77
2023-03-06T13:45:27.595Z,14.13
2023-03-06T13:48:27.340Z,15.13
2023-03-06T13:50:48.970Z,13.57
2023-03-06T13:53:34.260Z,16.00
2023-03-06T13:56:55.201Z,17.23
2023-03-06T14:00:08.308Z,18.13
2023-03-06T14:03:34.011Z,17.00
2023-03-06T14:06:38.581Z,17.58
2023-03-06T14:09:16.071Z,17.80
2023-03-06T14:12:00.641Z,19.75
2023-03-06T14:14:50.670Z,20.73
2023-03-06T14:17:34.523Z,18.13
2023-03-06T14:20:14.481Z,17.67
2023-03-06T14:22:41.667Z,20.95
2023-03-06T14:25:30.764Z,17.92
2023-03-06T14:28:05.727Z,17.63
2023-03-06T14:30:53.460Z,17.25
2023-03-06T14:33:56.437Z,17.27
2023-03-06T14:36:30.893Z,15.95
2023-03-06T14:39:04.767Z,18.48
2023-03-06T14:41:36.688Z,19.08
2023-03-06T14:44:23.462Z,16.70
2023-03-06T14:47:11.433Z,18.27
2023-03-06T14:49:38.373Z,20.42
2023-03-06T14:52:05.500Z,18.88
2023-03-06T14:54:36.999Z,17.83
2023-03-06T14:57:14.982Z,20.45
2023-03-06T14:59:51.035Z,18.02
2023-03-06T15:02:28.012Z,17.42
2023-03-06T15:05:06.249Z,18.15
2023-03-06T15:07:34.037Z,18.40
2023-03-06T15:10:01.570Z,17.30
2023-03-06T15:12:31.194Z,16.40
2023-03-06T15:15:24.086Z,17.10
2023-03-06T15:17:51.035Z,17.42
2023-03-06T15:20:53.276Z,18.08
2023-03-06T15:23:37.664Z,14.63
2023-03-06T15:26:36.896Z,14.77
2023-03-06T15:29:10.732Z,15.52
2023-03-06T15:31:44.425Z,13.38
2023-03-06T15:34:14.869Z,13.77
2023-03-06T15:36:56.812Z,14.30
2023-03-06T15:39:38.507Z,11.68
2023-03-06T15:42:34.086Z,13.35
2023-03-06T15:45:15.813Z,13.35
2023-03-06T15:47:45.229Z,15.20
2023-03-06T15:50:28.731Z,12.95
2023-03-06T15:52:55.720Z,11.82
2023-03-06T15:55:28.231Z,12.55
2023-03-06T15:58:02.108Z,12.40
2023-03-06T16:00:38.377Z,13.82
2023-03-06T16:03:05.641Z,17.40
2023-03-06T16:05:32.605Z,15.88
2023-03-06T16:07:59.603Z,14.88
2023-03-06T16:10:29.671Z,13.20
2023-03-06T16:13:16.063Z,15.13
2023-03-06T16:15:50.993Z,14.88
2023-03-06T16:18:18.999Z,14.25
2023-03-06T16:20:46.589Z,16.70
2023-03-06T16:23:15.382Z,14.35
2023-03-06T16:25:48.472Z,15.00
2023-03-06T16:28:16.880Z,17.10
2023-03-06T16:30:45.543Z,13.93
2023-03-06T16:33:13.585Z,13.25
2023-03-06T16:35:41.398Z,15.77
2023-03-06T16:38:09.808Z,19.73
2023-03-06T16:40:40.971Z,20.05
2023-03-06T16:43:09.640Z,16.02
2023-03-06T16:45:38.984Z,16.40
2023-03-06T16:48:06.776Z,16.63
2023-03-06T16:50:38.239Z,16.05
2023-03-06T16:53:06.012Z,15.68
2023-03-06T16:55:33.475Z,18.00
2023-03-06T16:58:00.821Z,19.75
2023-03-06T17:00:31.850Z,16.70
2023-03-06T17:03:00.549Z,18.30
2023-03-06T17:05:28.927Z,15.18
2023-03-06T17:07:56.754Z,16.83
2023-03-06T17:10:26.332Z,17.80
2023-03-06T17:12:55.133Z,16.73
2023-03-06T17:15:22.688Z,17.77
2023-03-06T17:17:51.613Z,19.80
2023-03-06T17:20:19.657Z,21.17
2023-03-06T17:22:47.126Z,19.70
2023-03-06T17:25:14.623Z,17.42
2023-03-06T17:27:41.954Z,21.67
2023-03-06T17:30:10.044Z,24.15
2023-03-06T17:32:40.004Z,21.52
2023-03-06T17:35:09.254Z,21.15
2023-03-06T17:37:36.652Z,23.30
2023-03-06T17:40:08.079Z,23.33
2023-03-06T17:42:35.850Z,22.45
2023-03-06T17:45:04.309Z,21.13
2023-03-06T17:47:31.820Z,22.77
2023-03-06T17:49:59.226Z,24.05
2023-03-06T17:52:26.600Z,25.33
2023-03-06T17:54:53.887Z,25.88
2023-03-06T17:57:21.272Z,19.95
2023-03-06T17:59:48.809Z,27.90
2023-03-06T18:02:16.426Z,27.80
2023-03-06T18:04:43.873Z,26.33
2023-03-06T18:07:11.275Z,23.25
2023-03-06T18:09:40.572Z,23.38
2023-03-06T18:12:08.115Z,23.92
2023-03-06T18:14:37.028Z,25.98
2023-03-06T18:17:04.305Z,26.40
2023-03-06T18:19:31.600Z,24.85
2023-03-06T18:21:59.035Z,24.75
2023-03-06T18:24:26.341Z,24.52
2023-03-06T18:26:53.643Z,24.83
2023-03-06T18:29:21.063Z,22.85
2023-03-06T18:31:50.245Z,28.15
2023-03-06T18:34:18.318Z,26.48
2023-03-06T18:36:51.501Z,28.85
2023-03-06T18:39:21.324Z,23.08
2023-03-06T18:41:48.871Z,26.48
2023-03-06T18:44:17.426Z,23.10
2023-03-06T18:46:44.966Z,21.15
2023-03-06T18:49:13.933Z,23.95
2023-03-06T18:51:41.723Z,23.38
2023-03-06T18:54:10.237Z,24.33
2023-03-06T18:56:39.444Z,23.50
2023-03-06T18:59:08.024Z,25.38
2023-03-06T19:01:40.188Z,21.50
2023-03-06T19:04:07.947Z,22.67
2023-03-06T19:06:40.841Z,20.05
2023-03-06T19:09:09.017Z,18.70
2023-03-06T19:11:36.592Z,21.40
2023-03-06T19:14:04.139Z,24.50
2023-03-06T19:16:31.826Z,18.88
2023-03-06T19:18:59.571Z,19.40
2023-03-06T19:21:28.450Z,21.23
2023-03-06T19:23:56.365Z,24.65
2023-03-06T19:26:24.163Z,21.67
2023-03-06T19:28:52.490Z,26.70
2023-03-06T19:31:24.834Z,23.80
2023-03-06T19:33:53.818Z,22.73
2023-03-06T19:36:26.800Z,23.85
2023-03-06T19:38:56.111Z,24.00
2023-03-06T19:41:23.927Z,26.02
2023-03-06T19:43:54.794Z,23.60
2023-03-06T19:46:23.218Z,22.27
2023-03-06T19:48:59.310Z,24.30
2023-03-06T19:51:27.881Z,23.65
2023-03-06T19:53:56.955Z,25.77
2023-03-06T19:56:27.580Z,22.55
2023-03-06T19:58:55.772Z,23.10
2023-03-06T20:01:25.541Z,23.80
2023-03-06T20:03:58.905Z,21.85
2023-03-06T20:06:29.576Z,24.88
2023-03-06T20:08:57.800Z,26.30
2023-03-06T20:11:29.903Z,27.00
2023-03-06T20:13:59.304Z,24.25
2023-03-06T20:16:30.438Z,22.38
2023-03-06T20:19:00.536Z,26.73
2023-03-06T20:21:30.044Z,25.40
2023-03-06T20:23:58.248Z,21.98
2023-03-06T20:26:28.438Z,28.67
2023-03-06T20:28:56.310Z,26.95
2023-03-06T20:31:26.547Z,25.83
2023-03-06T20:33:54.937Z,25.63
2023-03-06T20:36:28.968Z,26.38
2023-03-06T20:38:59.310Z,30.47
2023-03-06T20:41:28.887Z,27.40
2023-03-06T20:43:57.840Z,22.92
2023-03-06T20:46:25.371Z,24.63
2023-03-06T20:48:54.308Z,24.48
2023-03-06T20:51:31.510Z,25.58
2023-03-06T20:54:01.212Z,23.27
2023-03-06T20:56:31.449Z,28.55
2023-03-06T20:58:59.604Z,29.75
2023-03-06T21:01:29.994Z,26.50
2023-03-06T21:03:58.501Z,26.52
2023-03-06T21:06:28.047Z,27.65
2023-03-06T21:08:57.729Z,30.92
2023-03-06T21:11:25.449Z,29.30
2023-03-06T21:13:53.590Z,30.23
2023-03-06T21:16:24.097Z,32.17
2023-03-06T21:18:53.788Z,28.05
2023-03-06T21:21:24.089Z,26.83
2023-03-06T21:23:51.611Z,29.48
2023-03-06T21:26:21.472Z,30.00
2023-03-06T21:28:49.333Z,29.00
2023-03-06T21:31:18.996Z,29.25
2023-03-06T21:33:47.229Z,27.77
2023-03-06T21:36:14.849Z,24.15
2023-03-06T21:38:42.536Z,28.08
2023-03-06T21:41:14.594Z,24.58
2023-03-06T21:43:43.125Z,25.17
2023-03-06T21:46:11.015Z,29.75
2023-03-06T21:48:38.629Z,25.63
2023-03-06T21:51:16.013Z,24.98
2023-03-06T21:53:44.729Z,28.92
2023-03-06T21:56:13.362Z,27.60
2023-03-06T21:58:41.370Z,24.38
2023-03-06T22:01:14.338Z,26.05
2023-03-06T22:03:41.904Z,27.42
2023-03-06T22:06:18.047Z,26.65
2023-03-06T22:08:46.143Z,27.00
2023-03-06T22:11:16.187Z,28.38
2023-03-06T22:13:44.086Z,27.35
2023-03-06T22:16:11.955Z,33.53
2023-03-06T22:18:39.788Z,28.58
2023-03-06T22:21:08.867Z,29.67
2023-03-06T22:23:36.458Z,31.73
2023-03-06T22:26:05.392Z,31.55
2023-03-06T22:28:33.905Z,33.35
2023-03-06T22:31:06.165Z,34.50
2023-03-06T22:33:33.532Z,35.17
2023-03-06T22:36:05.522Z,34.80
2023-03-06T22:38:42.253Z,37.92
2023-03-06T22:41:38.247Z,34.42
2023-03-06T22:44:09.258Z,31.83
2023-03-06T22:46:42.906Z,38.47
2023-03-06T22:49:23.022Z,33.17
2023-03-06T23:03:09.068Z,35.70
2023-03-06T23:05:43.858Z,38.75
2023-03-06T23:12:37.062Z,35.90
2023-03-06T23:15:24.792Z,37.30
2023-03-06T23:18:13.949Z,40.10
2023-03-06T23:21:56.144Z,41.55
2023-03-06T23:25:18.022Z,40.05
2023-03-06T23:28:02.449Z,42.10
2023-03-06T23:30:29.879Z,38.63
2023-03-06T23:32:57.185Z,38.42
2023-03-06T23:35:24.625Z,43.50
2023-03-06T23:37:52.298Z,48.65
2023-03-06T23:40:20.483Z,43.35
2023-03-06T23:42:47.924Z,39.70
2023-03-06T23:45:15.263Z,41.50
2023-03-06T23:47:42.770Z,39.13
2023-03-06T23:50:10.912Z,40.15
2023-03-06T23:52:38.906Z,40.92
2023-03-06T23:55:06.942Z,36.85
2023-03-06T23:57:34.596Z,35.67
